Terminal Aerodrome Forecast
Issued by NWS North Platte, NE

Home | Current Version | Previous Version | Text Only | Print | Product List | Glossary Off
Versions: 1 2 3 4 5 6 7 8 9 10 11 12 13 14 15 16 17

000
FTUS43 KLBF 020500
TAFVTN
TAF
KVTN 020520Z 0206/0306 18005KT P6SM SKC
     FM021700 19012G18KT P6SM SCT200
     FM022200 19010KT P6SM BKN090=

USA.gov is the U.S. government's official web portal to all federal, state and local government web resources and services.